sensor_id;sensor_type;location;lat;lon;timestamp;P1;durP1;ratioP1;P2;durP2;ratioP2
49514;SDS011;35415;47.870;16.058;2023-01-15T00:01:19;4.45;;;2.35;;
49514;SDS011;35415;47.870;16.058;2023-01-15T00:03:55;4.22;;;2.47;;
49514;SDS011;35415;47.870;16.058;2023-01-15T00:13:33;6.18;;;2.38;;
49514;SDS011;35415;47.870;16.058;2023-01-15T00:16:54;5.70;;;2.20;;
49514;SDS011;35415;47.870;16.058;2023-01-15T00:19:54;4.30;;;2.00;;
49514;SDS011;35415;47.870;16.058;2023-01-15T00:26:52;4.53;;;2.05;;
49514;SDS011;35415;47.870;16.058;2023-01-15T06:44:13;5.28;;;2.70;;
49514;SDS011;35415;47.870;16.058;2023-01-15T06:47:02;5.90;;;2.60;;
49514;SDS011;35415;47.870;16.058;2023-01-15T06:49:49;9.75;;;2.90;;
49514;SDS011;35415;47.870;16.058;2023-01-15T06:52:45;6.32;;;2.90;;
49514;SDS011;35415;47.870;16.058;2023-01-15T06:55:14;5.35;;;2.42;;
49514;SDS011;35415;47.870;16.058;2023-01-15T06:57:42;7.50;;;2.95;;
49514;SDS011;35415;47.870;16.058;2023-01-15T07:00:13;4.50;;;2.05;;
49514;SDS011;35415;47.870;16.058;2023-01-15T07:02:41;4.00;;;2.28;;
49514;SDS011;35415;47.870;16.058;2023-01-15T07:05:14;4.35;;;2.75;;
49514;SDS011;35415;47.870;16.058;2023-01-15T07:07:50;4.35;;;2.40;;
49514;SDS011;35415;47.870;16.058;2023-01-15T07:10:17;5.10;;;2.60;;
49514;SDS011;35415;47.870;16.058;2023-01-15T07:12:45;8.20;;;2.85;;
49514;SDS011;35415;47.870;16.058;2023-01-15T07:15:14;6.55;;;2.80;;
49514;SDS011;35415;47.870;16.058;2023-01-15T07:17:59;4.85;;;2.45;;
49514;SDS011;35415;47.870;16.058;2023-01-15T07:20:28;5.50;;;2.03;;
49514;SDS011;35415;47.870;16.058;2023-01-15T07:22:56;6.55;;;2.85;;
49514;SDS011;35415;47.870;16.058;2023-01-15T07:25:26;3.78;;;2.00;;
49514;SDS011;35415;47.870;16.058;2023-01-15T07:27:54;5.55;;;2.55;;
49514;SDS011;35415;47.870;16.058;2023-01-15T07:30:23;7.90;;;2.40;;
49514;SDS011;35415;47.870;16.058;2023-01-15T07:32:54;8.13;;;2.70;;
49514;SDS011;35415;47.870;16.058;2023-01-15T07:35:22;4.10;;;2.67;;
49514;SDS011;35415;47.870;16.058;2023-01-15T07:37:49;8.00;;;3.15;;
49514;SDS011;35415;47.870;16.058;2023-01-15T07:40:17;6.28;;;2.97;;
49514;SDS011;35415;47.870;16.058;2023-01-15T07:42:45;5.40;;;3.03;;
49514;SDS011;35415;47.870;16.058;2023-01-15T07:45:31;5.40;;;2.85;;
49514;SDS011;35415;47.870;16.058;2023-01-15T07:48:18;5.35;;;2.88;;
49514;SDS011;35415;47.870;16.058;2023-01-15T07:51:05;6.35;;;3.65;;
49514;SDS011;35415;47.870;16.058;2023-01-15T07:53:33;6.45;;;3.55;;
49514;SDS011;35415;47.870;16.058;2023-01-15T07:56:06;6.20;;;3.38;;
49514;SDS011;35415;47.870;16.058;2023-01-15T07:58:40;9.25;;;4.13;;
49514;SDS011;35415;47.870;16.058;2023-01-15T08:03:42;21.52;;;8.57;;
49514;SDS011;35415;47.870;16.058;2023-01-15T08:06:09;11.82;;;5.68;;
49514;SDS011;35415;47.870;16.058;2023-01-15T08:08:36;11.68;;;5.93;;
49514;SDS011;35415;47.870;16.058;2023-01-15T08:11:04;16.02;;;6.32;;
49514;SDS011;35415;47.870;16.058;2023-01-15T08:13:49;14.52;;;5.35;;
49514;SDS011;35415;47.870;16.058;2023-01-15T08:16:35;28.50;;;13.10;;
49514;SDS011;35415;47.870;16.058;2023-01-15T08:19:03;36.97;;;15.98;;
49514;SDS011;35415;47.870;16.058;2023-01-15T08:21:30;18.17;;;9.52;;
49514;SDS011;35415;47.870;16.058;2023-01-15T08:23:58;11.75;;;6.20;;
49514;SDS011;35415;47.870;16.058;2023-01-15T08:26:25;11.73;;;5.22;;
49514;SDS011;35415;47.870;16.058;2023-01-15T08:28:52;8.85;;;4.47;;
49514;SDS011;35415;47.870;16.058;2023-01-15T08:31:20;10.18;;;5.35;;
49514;SDS011;35415;47.870;16.058;2023-01-15T08:33:49;7.13;;;4.20;;
49514;SDS011;35415;47.870;16.058;2023-01-15T08:36:16;8.15;;;4.75;;
49514;SDS011;35415;47.870;16.058;2023-01-15T08:38:43;12.13;;;5.47;;
49514;SDS011;35415;47.870;16.058;2023-01-15T08:41:11;12.38;;;4.65;;
49514;SDS011;35415;47.870;16.058;2023-01-15T08:43:38;8.25;;;4.50;;
49514;SDS011;35415;47.870;16.058;2023-01-15T08:46:05;8.77;;;4.82;;
49514;SDS011;35415;47.870;16.058;2023-01-15T08:48:34;9.93;;;4.20;;
49514;SDS011;35415;47.870;16.058;2023-01-15T08:51:05;9.35;;;4.68;;
49514;SDS011;35415;47.870;16.058;2023-01-15T08:53:36;5.35;;;3.72;;
49514;SDS011;35415;47.870;16.058;2023-01-15T08:56:08;9.50;;;4.93;;
49514;SDS011;35415;47.870;16.058;2023-01-15T08:58:40;7.30;;;4.10;;
49514;SDS011;35415;47.870;16.058;2023-01-15T09:01:22;8.57;;;4.80;;
49514;SDS011;35415;47.870;16.058;2023-01-15T09:04:23;6.65;;;4.60;;
49514;SDS011;35415;47.870;16.058;2023-01-15T09:06:55;8.23;;;4.32;;
49514;SDS011;35415;47.870;16.058;2023-01-15T09:09:24;8.57;;;4.57;;
49514;SDS011;35415;47.870;16.058;2023-01-15T09:12:23;8.32;;;4.63;;
49514;SDS011;35415;47.870;16.058;2023-01-15T09:21:45;12.25;;;4.93;;
49514;SDS011;35415;47.870;16.058;2023-01-15T09:24:58;13.70;;;5.80;;
49514;SDS011;35415;47.870;16.058;2023-01-15T09:27:43;9.38;;;4.90;;
49514;SDS011;35415;47.870;16.058;2023-01-15T09:33:33;7.03;;;4.10;;
49514;SDS011;35415;47.870;16.058;2023-01-15T09:36:13;16.63;;;7.25;;
49514;SDS011;35415;47.870;16.058;2023-01-15T09:38:55;9.43;;;5.82;;
49514;SDS011;35415;47.870;16.058;2023-01-15T09:41:29;13.07;;;7.38;;
49514;SDS011;35415;47.870;16.058;2023-01-15T09:48:19;7.53;;;4.88;;
49514;SDS011;35415;47.870;16.058;2023-01-15T09:51:31;11.30;;;7.07;;
49514;SDS011;35415;47.870;16.058;2023-01-15T09:54:01;13.77;;;9.13;;
49514;SDS011;35415;47.870;16.058;2023-01-15T09:56:41;11.40;;;7.63;;
49514;SDS011;35415;47.870;16.058;2023-01-15T09:59:19;14.20;;;8.32;;
49514;SDS011;35415;47.870;16.058;2023-01-15T10:02:11;11.40;;;7.45;;
49514;SDS011;35415;47.870;16.058;2023-01-15T10:04:55;10.95;;;6.20;;
49514;SDS011;35415;47.870;16.058;2023-01-15T10:07:35;7.65;;;5.78;;
49514;SDS011;35415;47.870;16.058;2023-01-15T10:10:10;10.70;;;6.05;;
49514;SDS011;35415;47.870;16.058;2023-01-15T10:12:43;8.45;;;5.55;;
49514;SDS011;35415;47.870;16.058;2023-01-15T10:15:23;8.18;;;5.30;;
49514;SDS011;35415;47.870;16.058;2023-01-15T10:17:57;6.75;;;4.05;;
49514;SDS011;35415;47.870;16.058;2023-01-15T10:23:33;4.72;;;2.83;;
49514;SDS011;35415;47.870;16.058;2023-01-15T10:26:14;4.72;;;3.13;;
49514;SDS011;35415;47.870;16.058;2023-01-15T10:28:58;6.95;;;3.25;;
49514;SDS011;35415;47.870;16.058;2023-01-15T10:31:44;4.88;;;3.03;;
49514;SDS011;35415;47.870;16.058;2023-01-15T10:34:27;6.25;;;3.72;;
49514;SDS011;35415;47.870;16.058;2023-01-15T10:37:07;7.07;;;4.47;;
49514;SDS011;35415;47.870;16.058;2023-01-15T10:39:40;6.38;;;3.78;;
49514;SDS011;35415;47.870;16.058;2023-01-15T10:42:18;7.65;;;3.40;;
49514;SDS011;35415;47.870;16.058;2023-01-15T10:45:01;5.75;;;3.70;;
49514;SDS011;35415;47.870;16.058;2023-01-15T10:47:38;9.23;;;4.32;;
49514;SDS011;35415;47.870;16.058;2023-01-15T10:50:27;4.75;;;3.63;;
49514;SDS011;35415;47.870;16.058;2023-01-15T10:53:01;8.75;;;3.83;;
49514;SDS011;35415;47.870;16.058;2023-01-15T10:55:38;7.20;;;3.50;;
49514;SDS011;35415;47.870;16.058;2023-01-15T10:58:11;6.82;;;4.05;;
49514;SDS011;35415;47.870;16.058;2023-01-15T11:00:48;7.18;;;4.60;;
49514;SDS011;35415;47.870;16.058;2023-01-15T11:03:28;8.83;;;5.00;;
49514;SDS011;35415;47.870;16.058;2023-01-15T11:06:01;8.93;;;4.90;;
49514;SDS011;35415;47.870;16.058;2023-01-15T11:08:32;11.15;;;5.20;;
49514;SDS011;35415;47.870;16.058;2023-01-15T11:11:06;9.80;;;6.10;;
49514;SDS011;35415;47.870;16.058;2023-01-15T11:14:19;10.00;;;6.05;;
49514;SDS011;35415;47.870;16.058;2023-01-15T11:17:06;9.13;;;5.45;;
49514;SDS011;35415;47.870;16.058;2023-01-15T11:19:57;11.20;;;5.47;;
49514;SDS011;35415;47.870;16.058;2023-01-15T11:22:24;9.35;;;5.90;;
49514;SDS011;35415;47.870;16.058;2023-01-15T11:24:54;9.90;;;5.57;;
49514;SDS011;35415;47.870;16.058;2023-01-15T11:27:25;12.68;;;6.93;;
49514;SDS011;35415;47.870;16.058;2023-01-15T11:30:00;12.77;;;7.45;;
49514;SDS011;35415;47.870;16.058;2023-01-15T11:32:30;11.50;;;6.82;;
49514;SDS011;35415;47.870;16.058;2023-01-15T11:35:02;10.95;;;6.80;;
49514;SDS011;35415;47.870;16.058;2023-01-15T11:37:42;12.38;;;6.65;;
49514;SDS011;35415;47.870;16.058;2023-01-15T11:40:14;11.63;;;7.38;;
49514;SDS011;35415;47.870;16.058;2023-01-15T11:42:55;13.10;;;6.60;;
49514;SDS011;35415;47.870;16.058;2023-01-15T11:45:47;13.00;;;7.20;;
49514;SDS011;35415;47.870;16.058;2023-01-15T11:48:33;11.50;;;7.03;;
49514;SDS011;35415;47.870;16.058;2023-01-15T11:54:01;12.82;;;7.55;;
49514;SDS011;35415;47.870;16.058;2023-01-15T11:56:31;15.57;;;7.18;;
49514;SDS011;35415;47.870;16.058;2023-01-15T11:59:02;39.00;;;15.32;;
49514;SDS011;35415;47.870;16.058;2023-01-15T12:01:38;24.63;;;11.68;;
49514;SDS011;35415;47.870;16.058;2023-01-15T12:04:27;15.07;;;7.82;;
49514;SDS011;35415;47.870;16.058;2023-01-15T12:06:59;14.32;;;6.70;;
49514;SDS011;35415;47.870;16.058;2023-01-15T12:09:39;10.05;;;5.90;;
49514;SDS011;35415;47.870;16.058;2023-01-15T12:12:23;8.40;;;5.18;;
49514;SDS011;35415;47.870;16.058;2023-01-15T12:15:06;7.72;;;4.32;;
49514;SDS011;35415;47.870;16.058;2023-01-15T12:17:49;5.68;;;4.43;;
49514;SDS011;35415;47.870;16.058;2023-01-15T12:20:57;6.15;;;4.47;;
49514;SDS011;35415;47.870;16.058;2023-01-15T12:23:44;9.65;;;6.03;;
49514;SDS011;35415;47.870;16.058;2023-01-15T12:26:27;15.27;;;7.82;;
49514;SDS011;35415;47.870;16.058;2023-01-15T12:29:08;20.20;;;10.18;;
49514;SDS011;35415;47.870;16.058;2023-01-15T12:31:45;18.45;;;9.75;;
49514;SDS011;35415;47.870;16.058;2023-01-15T12:34:19;9.68;;;5.70;;
49514;SDS011;35415;47.870;16.058;2023-01-15T12:36:53;10.57;;;5.85;;
49514;SDS011;35415;47.870;16.058;2023-01-15T12:39:28;11.85;;;5.95;;
49514;SDS011;35415;47.870;16.058;2023-01-15T12:41:59;12.65;;;6.72;;
49514;SDS011;35415;47.870;16.058;2023-01-15T12:44:49;9.80;;;6.28;;
49514;SDS011;35415;47.870;16.058;2023-01-15T12:47:31;12.98;;;6.90;;
49514;SDS011;35415;47.870;16.058;2023-01-15T12:50:14;10.32;;;5.93;;
49514;SDS011;35415;47.870;16.058;2023-01-15T12:52:53;9.48;;;5.43;;
49514;SDS011;35415;47.870;16.058;2023-01-15T12:55:28;8.25;;;5.57;;
49514;SDS011;35415;47.870;16.058;2023-01-15T12:58:11;9.95;;;6.68;;
49514;SDS011;35415;47.870;16.058;2023-01-15T13:00:45;10.52;;;7.10;;
49514;SDS011;35415;47.870;16.058;2023-01-15T13:03:16;9.88;;;6.30;;
49514;SDS011;35415;47.870;16.058;2023-01-15T13:05:53;8.55;;;5.82;;
49514;SDS011;35415;47.870;16.058;2023-01-15T13:08:25;10.82;;;5.15;;
49514;SDS011;35415;47.870;16.058;2023-01-15T13:10:56;13.27;;;6.10;;
49514;SDS011;35415;47.870;16.058;2023-01-15T13:13:25;14.45;;;8.15;;
49514;SDS011;35415;47.870;16.058;2023-01-15T13:16:00;11.10;;;6.10;;
49514;SDS011;35415;47.870;16.058;2023-01-15T13:18:40;7.25;;;4.97;;
49514;SDS011;35415;47.870;16.058;2023-01-15T13:21:21;10.83;;;5.63;;
49514;SDS011;35415;47.870;16.058;2023-01-15T13:24:10;34.40;;;13.55;;
49514;SDS011;35415;47.870;16.058;2023-01-15T13:26:55;38.75;;;17.08;;
49514;SDS011;35415;47.870;16.058;2023-01-15T13:29:42;17.05;;;8.60;;
49514;SDS011;35415;47.870;16.058;2023-01-15T13:32:17;8.38;;;4.65;;
49514;SDS011;35415;47.870;16.058;2023-01-15T13:34:53;6.68;;;3.85;;
49514;SDS011;35415;47.870;16.058;2023-01-15T13:37:33;6.15;;;3.53;;
49514;SDS011;35415;47.870;16.058;2023-01-15T13:40:10;7.28;;;4.32;;
49514;SDS011;35415;47.870;16.058;2023-01-15T13:42:54;7.30;;;4.80;;
49514;SDS011;35415;47.870;16.058;2023-01-15T13:45:26;11.05;;;5.63;;
49514;SDS011;35415;47.870;16.058;2023-01-15T13:48:13;8.90;;;4.90;;
49514;SDS011;35415;47.870;16.058;2023-01-15T13:50:50;9.77;;;5.18;;
49514;SDS011;35415;47.870;16.058;2023-01-15T13:53:25;11.25;;;5.25;;
49514;SDS011;35415;47.870;16.058;2023-01-15T13:56:02;9.02;;;4.88;;
49514;SDS011;35415;47.870;16.058;2023-01-15T13:58:51;6.95;;;4.30;;
49514;SDS011;35415;47.870;16.058;2023-01-15T14:01:21;5.45;;;3.88;;
49514;SDS011;35415;47.870;16.058;2023-01-15T14:03:58;7.03;;;4.03;;
49514;SDS011;35415;47.870;16.058;2023-01-15T14:06:36;7.95;;;3.97;;
49514;SDS011;35415;47.870;16.058;2023-01-15T14:09:11;5.68;;;4.13;;
49514;SDS011;35415;47.870;16.058;2023-01-15T14:11:48;5.82;;;4.35;;
49514;SDS011;35415;47.870;16.058;2023-01-15T14:17:38;8.98;;;4.95;;
49514;SDS011;35415;47.870;16.058;2023-01-15T14:20:37;9.63;;;4.88;;
49514;SDS011;35415;47.870;16.058;2023-01-15T14:26:52;8.88;;;4.57;;
49514;SDS011;35415;47.870;16.058;2023-01-15T14:29:39;8.95;;;5.00;;
49514;SDS011;35415;47.870;16.058;2023-01-15T14:32:40;10.23;;;5.90;;
49514;SDS011;35415;47.870;16.058;2023-01-15T14:35:23;9.88;;;6.45;;
49514;SDS011;35415;47.870;16.058;2023-01-15T14:37:54;15.38;;;8.82;;
49514;SDS011;35415;47.870;16.058;2023-01-15T14:40:25;16.63;;;9.68;;
49514;SDS011;35415;47.870;16.058;2023-01-15T14:42:58;17.13;;;10.48;;
49514;SDS011;35415;47.870;16.058;2023-01-15T14:45:33;18.55;;;10.32;;
49514;SDS011;35415;47.870;16.058;2023-01-15T14:48:03;15.05;;;7.70;;
49514;SDS011;35415;47.870;16.058;2023-01-15T14:50:37;12.38;;;7.85;;
49514;SDS011;35415;47.870;16.058;2023-01-15T14:53:24;9.20;;;5.97;;
49514;SDS011;35415;47.870;16.058;2023-01-15T14:55:57;10.25;;;6.57;;
49514;SDS011;35415;47.870;16.058;2023-01-15T14:58:35;8.75;;;5.20;;
49514;SDS011;35415;47.870;16.058;2023-01-15T15:01:16;11.82;;;7.25;;
49514;SDS011;35415;47.870;16.058;2023-01-15T15:03:51;9.35;;;6.07;;
49514;SDS011;35415;47.870;16.058;2023-01-15T15:06:22;8.82;;;5.40;;
49514;SDS011;35415;47.870;16.058;2023-01-15T15:08:50;7.75;;;4.75;;
49514;SDS011;35415;47.870;16.058;2023-01-15T15:11:32;5.70;;;4.55;;
49514;SDS011;35415;47.870;16.058;2023-01-15T15:14:24;11.05;;;5.35;;
49514;SDS011;35415;47.870;16.058;2023-01-15T15:16:55;10.77;;;5.68;;
49514;SDS011;35415;47.870;16.058;2023-01-15T15:19:32;9.13;;;5.20;;
49514;SDS011;35415;47.870;16.058;2023-01-15T15:22:05;9.50;;;4.70;;
49514;SDS011;35415;47.870;16.058;2023-01-15T15:24:41;7.25;;;4.35;;
49514;SDS011;35415;47.870;16.058;2023-01-15T15:27:15;6.57;;;4.95;;
49514;SDS011;35415;47.870;16.058;2023-01-15T15:30:10;5.68;;;3.67;;
49514;SDS011;35415;47.870;16.058;2023-01-15T15:32:41;6.00;;;4.30;;
49514;SDS011;35415;47.870;16.058;2023-01-15T15:35:18;7.75;;;3.80;;
49514;SDS011;35415;47.870;16.058;2023-01-15T15:37:58;7.78;;;4.80;;
49514;SDS011;35415;47.870;16.058;2023-01-15T15:41:01;9.23;;;5.70;;
49514;SDS011;35415;47.870;16.058;2023-01-15T15:43:38;6.43;;;3.97;;
49514;SDS011;35415;47.870;16.058;2023-01-15T15:49:15;7.28;;;4.13;;
49514;SDS011;35415;47.870;16.058;2023-01-15T15:51:44;6.00;;;4.20;;
49514;SDS011;35415;47.870;16.058;2023-01-15T15:54:18;10.77;;;4.40;;
49514;SDS011;35415;47.870;16.058;2023-01-15T15:56:53;7.60;;;4.85;;
49514;SDS011;35415;47.870;16.058;2023-01-15T15:59:30;7.40;;;4.68;;
49514;SDS011;35415;47.870;16.058;2023-01-15T16:02:12;8.77;;;4.50;;
49514;SDS011;35415;47.870;16.058;2023-01-15T16:04:45;5.30;;;3.22;;
49514;SDS011;35415;47.870;16.058;2023-01-15T16:07:22;4.93;;;2.30;;
49514;SDS011;35415;47.870;16.058;2023-01-15T16:10:28;3.63;;;1.85;;
49514;SDS011;35415;47.870;16.058;2023-01-15T16:12:58;2.30;;;1.08;;
49514;SDS011;35415;47.870;16.058;2023-01-15T16:15:28;1.95;;;1.23;;
49514;SDS011;35415;47.870;16.058;2023-01-15T16:18:00;2.25;;;0.70;;
49514;SDS011;35415;47.870;16.058;2023-01-15T16:20:29;0.82;;;0.52;;
49514;SDS011;35415;47.870;16.058;2023-01-15T16:22:58;1.33;;;1.00;;
49514;SDS011;35415;47.870;16.058;2023-01-15T16:25:27;1.05;;;0.65;;
49514;SDS011;35415;47.870;16.058;2023-01-15T16:27:59;0.35;;;0.35;;
49514;SDS011;35415;47.870;16.058;2023-01-15T16:30:27;0.30;;;0.30;;
49514;SDS011;35415;47.870;16.058;2023-01-15T16:33:00;0.40;;;0.40;;
49514;SDS011;35415;47.870;16.058;2023-01-15T16:35:29;0.20;;;0.10;;
49514;SDS011;35415;47.870;16.058;2023-01-15T16:38:01;0.50;;;0.50;;
49514;SDS011;35415;47.870;16.058;2023-01-15T16:40:32;0.70;;;0.50;;
49514;SDS011;35415;47.870;16.058;2023-01-15T16:43:03;0.55;;;0.40;;
49514;SDS011;35415;47.870;16.058;2023-01-15T16:45:34;0.60;;;0.30;;
49514;SDS011;35415;47.870;16.058;2023-01-15T16:48:27;0.20;;;0.20;;
49514;SDS011;35415;47.870;16.058;2023-01-15T16:54:00;1.30;;;0.60;;
49514;SDS011;35415;47.870;16.058;2023-01-15T16:56:52;1.15;;;0.75;;
49514;SDS011;35415;47.870;16.058;2023-01-15T17:02:32;0.38;;;0.10;;
49514;SDS011;35415;47.870;16.058;2023-01-15T17:05:33;0.20;;;0.20;;
49514;SDS011;35415;47.870;16.058;2023-01-15T17:08:13;0.30;;;0.30;;
49514;SDS011;35415;47.870;16.058;2023-01-15T17:13:30;0.30;;;0.30;;
49514;SDS011;35415;47.870;16.058;2023-01-15T17:16:04;0.77;;;0.60;;
49514;SDS011;35415;47.870;16.058;2023-01-15T17:18:44;0.55;;;0.28;;
49514;SDS011;35415;47.870;16.058;2023-01-15T17:21:17;0.90;;;0.60;;
49514;SDS011;35415;47.870;16.058;2023-01-15T17:23:51;1.48;;;0.77;;
49514;SDS011;35415;47.870;16.058;2023-01-15T17:26:21;1.13;;;0.47;;
49514;SDS011;35415;47.870;16.058;2023-01-15T17:28:57;1.60;;;0.70;;
49514;SDS011;35415;47.870;16.058;2023-01-15T17:31:29;1.33;;;0.70;;
49514;SDS011;35415;47.870;16.058;2023-01-15T17:33:58;0.47;;;0.30;;
49514;SDS011;35415;47.870;16.058;2023-01-15T17:36:28;1.02;;;0.60;;
49514;SDS011;35415;47.870;16.058;2023-01-15T17:39:03;1.30;;;0.80;;
49514;SDS011;35415;47.870;16.058;2023-01-15T17:41:50;0.50;;;0.50;;
49514;SDS011;35415;47.870;16.058;2023-01-15T17:44:18;0.50;;;0.50;;
49514;SDS011;35415;47.870;16.058;2023-01-15T17:46:46;0.75;;;0.35;;
49514;SDS011;35415;47.870;16.058;2023-01-15T17:49:13;0.30;;;0.30;;
49514;SDS011;35415;47.870;16.058;2023-01-15T17:51:42;1.25;;;0.60;;
49514;SDS011;35415;47.870;16.058;2023-01-15T17:54:17;0.40;;;0.40;;
49514;SDS011;35415;47.870;16.058;2023-01-15T17:57:06;0.30;;;0.30;;
49514;SDS011;35415;47.870;16.058;2023-01-15T18:00:09;0.43;;;0.40;;
49514;SDS011;35415;47.870;16.058;2023-01-15T18:03:24;0.40;;;0.32;;
49514;SDS011;35415;47.870;16.058;2023-01-15T18:28:12;1.52;;;0.70;;
49514;SDS011;35415;47.870;16.058;2023-01-15T19:16:51;2.08;;;1.00;;
49514;SDS011;35415;47.870;16.058;2023-01-15T19:19:42;1.35;;;0.80;;
49514;SDS011;35415;47.870;16.058;2023-01-15T19:22:14;2.25;;;1.17;;
49514;SDS011;35415;47.870;16.058;2023-01-15T19:25:10;0.75;;;0.50;;
49514;SDS011;35415;47.870;16.058;2023-01-15T19:27:44;3.10;;;1.30;;
49514;SDS011;35415;47.870;16.058;2023-01-15T19:39:15;1.55;;;0.85;;
49514;SDS011;35415;47.870;16.058;2023-01-15T19:41:45;0.50;;;0.40;;
49514;SDS011;35415;47.870;16.058;2023-01-15T19:44:40;1.37;;;0.70;;
49514;SDS011;35415;47.870;16.058;2023-01-15T19:47:27;1.83;;;0.70;;
49514;SDS011;35415;47.870;16.058;2023-01-15T19:50:31;1.15;;;0.52;;
49514;SDS011;35415;47.870;16.058;2023-01-15T19:53:02;1.55;;;0.55;;
49514;SDS011;35415;47.870;16.058;2023-01-15T19:55:37;1.70;;;0.60;;
49514;SDS011;35415;47.870;16.058;2023-01-15T19:58:20;0.70;;;0.32;;
49514;SDS011;35415;47.870;16.058;2023-01-15T20:00:54;0.47;;;0.47;;
49514;SDS011;35415;47.870;16.058;2023-01-15T20:03:32;0.08;;;0.08;;
49514;SDS011;35415;47.870;16.058;2023-01-15T20:06:00;0.10;;;0.10;;
49514;SDS011;35415;47.870;16.058;2023-01-15T20:08:36;0.47;;;0.28;;
49514;SDS011;35415;47.870;16.058;2023-01-15T20:14:08;1.20;;;0.65;;
49514;SDS011;35415;47.870;16.058;2023-01-15T20:17:10;0.47;;;0.32;;
49514;SDS011;35415;47.870;16.058;2023-01-15T20:19:38;0.43;;;0.28;;
49514;SDS011;35415;47.870;16.058;2023-01-15T20:22:17;0.70;;;0.50;;
49514;SDS011;35415;47.870;16.058;2023-01-15T20:24:51;0.20;;;0.20;;
49514;SDS011;35415;47.870;16.058;2023-01-15T20:27:26;0.75;;;0.40;;
